sensor_id;sensor_type;location;lat;lon;timestamp;temperature;humidity
5172;DHT22;2605;49.770;9.868;2023-09-30T00:01:00;15.30;99.90
5172;DHT22;2605;49.770;9.868;2023-09-30T00:03:26;15.20;99.90
5172;DHT22;2605;49.770;9.868;2023-09-30T00:05:54;15.30;99.90
5172;DHT22;2605;49.770;9.868;2023-09-30T00:08:19;15.20;99.90
5172;DHT22;2605;49.770;9.868;2023-09-30T00:10:45;15.20;99.90
5172;DHT22;2605;49.770;9.868;2023-09-30T00:13:14;15.20;99.90
5172;DHT22;2605;49.770;9.868;2023-09-30T00:15:41;15.20;99.90
5172;DHT22;2605;49.770;9.868;2023-09-30T00:18:07;15.20;99.90
5172;DHT22;2605;49.770;9.868;2023-09-30T00:20:32;15.10;99.90
5172;DHT22;2605;49.770;9.868;2023-09-30T00:22:58;15.10;99.90
5172;DHT22;2605;49.770;9.868;2023-09-30T00:25:23;15.10;99.90
5172;DHT22;2605;49.770;9.868;2023-09-30T00:27:49;15.10;99.90
5172;DHT22;2605;49.770;9.868;2023-09-30T00:30:15;15.00;99.90
5172;DHT22;2605;49.770;9.868;2023-09-30T00:32:40;15.10;99.90
5172;DHT22;2605;49.770;9.868;2023-09-30T00:35:06;15.10;99.90
5172;DHT22;2605;49.770;9.868;2023-09-30T00:37:37;15.10;99.90
5172;DHT22;2605;49.770;9.868;2023-09-30T00:40:04;15.00;99.90
5172;DHT22;2605;49.770;9.868;2023-09-30T00:42:29;15.00;99.90
5172;DHT22;2605;49.770;9.868;2023-09-30T00:44:55;15.00;99.90
5172;DHT22;2605;49.770;9.868;2023-09-30T00:47:20;15.00;99.90
5172;DHT22;2605;49.770;9.868;2023-09-30T00:49:46;15.00;99.90
5172;DHT22;2605;49.770;9.868;2023-09-30T00:52:12;15.00;99.90
5172;DHT22;2605;49.770;9.868;2023-09-30T00:54:39;15.00;99.90
5172;DHT22;2605;49.770;9.868;2023-09-30T00:57:05;15.00;99.90
5172;DHT22;2605;49.770;9.868;2023-09-30T00:59:31;15.00;99.90
5172;DHT22;2605;49.770;9.868;2023-09-30T01:01:58;15.00;99.90
5172;DHT22;2605;49.770;9.868;2023-09-30T01:04:27;15.00;99.90
5172;DHT22;2605;49.770;9.868;2023-09-30T01:06:52;15.00;99.90
5172;DHT22;2605;49.770;9.868;2023-09-30T01:09:18;15.00;99.90
5172;DHT22;2605;49.770;9.868;2023-09-30T01:11:44;15.00;99.90
5172;DHT22;2605;49.770;9.868;2023-09-30T01:14:30;15.00;99.90
5172;DHT22;2605;49.770;9.868;2023-09-30T01:16:56;15.10;99.90
5172;DHT22;2605;49.770;9.868;2023-09-30T01:19:22;15.10;99.90
5172;DHT22;2605;49.770;9.868;2023-09-30T01:24:20;15.10;99.90
5172;DHT22;2605;49.770;9.868;2023-09-30T01:26:45;15.10;99.90
5172;DHT22;2605;49.770;9.868;2023-09-30T01:29:11;15.00;99.90
5172;DHT22;2605;49.770;9.868;2023-09-30T01:31:37;15.00;99.90
5172;DHT22;2605;49.770;9.868;2023-09-30T01:34:04;15.00;99.90
5172;DHT22;2605;49.770;9.868;2023-09-30T01:36:29;15.00;99.90
5172;DHT22;2605;49.770;9.868;2023-09-30T01:38:55;15.00;99.90
5172;DHT22;2605;49.770;9.868;2023-09-30T01:41:20;15.00;99.90
5172;DHT22;2605;49.770;9.868;2023-09-30T01:43:46;15.00;99.90
5172;DHT22;2605;49.770;9.868;2023-09-30T01:46:12;15.00;99.90
5172;DHT22;2605;49.770;9.868;2023-09-30T01:48:38;15.10;99.90
5172;DHT22;2605;49.770;9.868;2023-09-30T01:51:03;15.00;99.90
5172;DHT22;2605;49.770;9.868;2023-09-30T01:53:29;15.00;99.90
5172;DHT22;2605;49.770;9.868;2023-09-30T01:55:54;15.00;99.90
5172;DHT22;2605;49.770;9.868;2023-09-30T01:58:20;15.10;99.90
5172;DHT22;2605;49.770;9.868;2023-09-30T02:00:45;15.00;99.90
5172;DHT22;2605;49.770;9.868;2023-09-30T02:03:11;15.00;99.90
5172;DHT22;2605;49.770;9.868;2023-09-30T02:05:38;15.10;99.90
5172;DHT22;2605;49.770;9.868;2023-09-30T02:08:04;15.00;99.90
5172;DHT22;2605;49.770;9.868;2023-09-30T02:10:31;15.00;99.90
5172;DHT22;2605;49.770;9.868;2023-09-30T02:12:58;15.00;99.90
5172;DHT22;2605;49.770;9.868;2023-09-30T02:15:25;15.00;99.90
5172;DHT22;2605;49.770;9.868;2023-09-30T02:17:51;15.00;99.90
5172;DHT22;2605;49.770;9.868;2023-09-30T02:20:17;14.90;99.90
5172;DHT22;2605;49.770;9.868;2023-09-30T02:22:47;14.90;99.90
5172;DHT22;2605;49.770;9.868;2023-09-30T02:25:14;15.00;99.90
5172;DHT22;2605;49.770;9.868;2023-09-30T02:27:41;14.90;99.90
5172;DHT22;2605;49.770;9.868;2023-09-30T02:30:08;14.90;99.90
5172;DHT22;2605;49.770;9.868;2023-09-30T02:32:33;14.90;99.90
5172;DHT22;2605;49.770;9.868;2023-09-30T02:34:59;14.90;99.90
5172;DHT22;2605;49.770;9.868;2023-09-30T02:37:24;14.90;99.90
5172;DHT22;2605;49.770;9.868;2023-09-30T02:39:51;14.90;99.90
5172;DHT22;2605;49.770;9.868;2023-09-30T02:42:16;14.90;99.90
5172;DHT22;2605;49.770;9.868;2023-09-30T02:44:42;14.90;99.90
5172;DHT22;2605;49.770;9.868;2023-09-30T02:47:07;14.90;99.90
5172;DHT22;2605;49.770;9.868;2023-09-30T02:49:37;14.90;99.90
5172;DHT22;2605;49.770;9.868;2023-09-30T02:52:02;14.80;99.90
5172;DHT22;2605;49.770;9.868;2023-09-30T02:54:27;14.80;99.90
5172;DHT22;2605;49.770;9.868;2023-09-30T02:56:54;14.80;99.90
5172;DHT22;2605;49.770;9.868;2023-09-30T02:59:20;14.80;99.90
5172;DHT22;2605;49.770;9.868;2023-09-30T03:01:47;14.70;99.90
5172;DHT22;2605;49.770;9.868;2023-09-30T03:04:13;14.70;99.90
5172;DHT22;2605;49.770;9.868;2023-09-30T03:06:38;14.60;99.90
5172;DHT22;2605;49.770;9.868;2023-09-30T03:09:07;14.50;99.90
5172;DHT22;2605;49.770;9.868;2023-09-30T03:11:34;14.50;99.90
5172;DHT22;2605;49.770;9.868;2023-09-30T03:14:00;14.40;99.90
5172;DHT22;2605;49.770;9.868;2023-09-30T03:16:25;14.30;99.90
5172;DHT22;2605;49.770;9.868;2023-09-30T03:18:51;14.30;99.90
5172;DHT22;2605;49.770;9.868;2023-09-30T03:21:17;14.30;99.90
5172;DHT22;2605;49.770;9.868;2023-09-30T03:23:43;14.30;99.90
5172;DHT22;2605;49.770;9.868;2023-09-30T03:26:09;14.20;99.90
5172;DHT22;2605;49.770;9.868;2023-09-30T03:28:38;14.20;99.90
5172;DHT22;2605;49.770;9.868;2023-09-30T03:31:04;14.10;99.90
5172;DHT22;2605;49.770;9.868;2023-09-30T03:33:34;14.10;99.90
5172;DHT22;2605;49.770;9.868;2023-09-30T03:35:59;14.10;99.90
5172;DHT22;2605;49.770;9.868;2023-09-30T03:38:26;14.00;99.90
5172;DHT22;2605;49.770;9.868;2023-09-30T03:40:51;14.00;99.90
5172;DHT22;2605;49.770;9.868;2023-09-30T03:43:20;14.00;99.90
5172;DHT22;2605;49.770;9.868;2023-09-30T03:45:46;14.00;99.90
5172;DHT22;2605;49.770;9.868;2023-09-30T03:48:12;14.10;99.90
5172;DHT22;2605;49.770;9.868;2023-09-30T03:50:37;14.00;99.90
5172;DHT22;2605;49.770;9.868;2023-09-30T03:53:04;14.00;99.90
5172;DHT22;2605;49.770;9.868;2023-09-30T03:55:35;14.00;99.90
5172;DHT22;2605;49.770;9.868;2023-09-30T03:58:03;14.00;99.90
5172;DHT22;2605;49.770;9.868;2023-09-30T04:00:29;14.00;99.90
5172;DHT22;2605;49.770;9.868;2023-09-30T04:02:55;14.00;99.90
5172;DHT22;2605;49.770;9.868;2023-09-30T04:05:24;14.00;99.90
5172;DHT22;2605;49.770;9.868;2023-09-30T04:07:59;14.00;99.90
5172;DHT22;2605;49.770;9.868;2023-09-30T04:10:25;14.10;99.90
5172;DHT22;2605;49.770;9.868;2023-09-30T04:12:51;14.10;99.90
5172;DHT22;2605;49.770;9.868;2023-09-30T04:15:18;14.10;99.90
5172;DHT22;2605;49.770;9.868;2023-09-30T04:17:43;14.10;99.90
5172;DHT22;2605;49.770;9.868;2023-09-30T04:20:09;14.00;99.90
5172;DHT22;2605;49.770;9.868;2023-09-30T04:22:35;14.10;99.90
5172;DHT22;2605;49.770;9.868;2023-09-30T04:25:02;14.00;99.90
5172;DHT22;2605;49.770;9.868;2023-09-30T04:27:31;14.00;99.90
5172;DHT22;2605;49.770;9.868;2023-09-30T04:29:56;13.90;99.90
5172;DHT22;2605;49.770;9.868;2023-09-30T04:32:22;13.90;99.90
5172;DHT22;2605;49.770;9.868;2023-09-30T04:34:50;13.80;99.90
5172;DHT22;2605;49.770;9.868;2023-09-30T04:37:16;13.80;99.90
5172;DHT22;2605;49.770;9.868;2023-09-30T04:39:41;13.80;99.90
5172;DHT22;2605;49.770;9.868;2023-09-30T04:42:07;13.80;99.90
5172;DHT22;2605;49.770;9.868;2023-09-30T04:44:36;13.80;99.90
5172;DHT22;2605;49.770;9.868;2023-09-30T04:47:03;13.70;99.90
5172;DHT22;2605;49.770;9.868;2023-09-30T04:49:29;13.70;99.90
5172;DHT22;2605;49.770;9.868;2023-09-30T04:51:56;13.60;99.90
5172;DHT22;2605;49.770;9.868;2023-09-30T04:54:21;13.60;99.90
5172;DHT22;2605;49.770;9.868;2023-09-30T04:56:47;13.50;99.90
5172;DHT22;2605;49.770;9.868;2023-09-30T04:59:13;13.50;99.90
5172;DHT22;2605;49.770;9.868;2023-09-30T05:01:39;13.50;99.90
5172;DHT22;2605;49.770;9.868;2023-09-30T05:04:04;13.50;99.90
5172;DHT22;2605;49.770;9.868;2023-09-30T05:06:31;13.40;99.90
5172;DHT22;2605;49.770;9.868;2023-09-30T05:08:58;13.40;99.90
5172;DHT22;2605;49.770;9.868;2023-09-30T05:11:23;13.40;99.90
5172;DHT22;2605;49.770;9.868;2023-09-30T05:13:49;13.40;99.90
5172;DHT22;2605;49.770;9.868;2023-09-30T05:16:15;13.40;99.90
5172;DHT22;2605;49.770;9.868;2023-09-30T05:18:41;13.40;99.90
5172;DHT22;2605;49.770;9.868;2023-09-30T05:21:07;13.30;99.90
5172;DHT22;2605;49.770;9.868;2023-09-30T05:23:32;13.40;99.90
5172;DHT22;2605;49.770;9.868;2023-09-30T05:25:58;13.40;99.90
5172;DHT22;2605;49.770;9.868;2023-09-30T05:28:23;13.40;99.90
5172;DHT22;2605;49.770;9.868;2023-09-30T05:30:49;13.40;99.90
5172;DHT22;2605;49.770;9.868;2023-09-30T05:33:15;13.40;99.90
5172;DHT22;2605;49.770;9.868;2023-09-30T05:35:42;13.40;99.90
5172;DHT22;2605;49.770;9.868;2023-09-30T05:38:08;13.40;99.90
5172;DHT22;2605;49.770;9.868;2023-09-30T05:40:34;13.40;99.90
5172;DHT22;2605;49.770;9.868;2023-09-30T05:42:59;13.40;99.90
5172;DHT22;2605;49.770;9.868;2023-09-30T05:45:27;13.40;99.90
5172;DHT22;2605;49.770;9.868;2023-09-30T05:47:53;13.40;99.90
5172;DHT22;2605;49.770;9.868;2023-09-30T05:50:20;13.40;99.90
5172;DHT22;2605;49.770;9.868;2023-09-30T05:52:51;13.40;99.90
5172;DHT22;2605;49.770;9.868;2023-09-30T05:55:17;13.40;99.90
5172;DHT22;2605;49.770;9.868;2023-09-30T05:57:49;13.40;99.90
5172;DHT22;2605;49.770;9.868;2023-09-30T06:00:16;13.50;99.90
5172;DHT22;2605;49.770;9.868;2023-09-30T06:03:00;13.60;99.90
5172;DHT22;2605;49.770;9.868;2023-09-30T06:05:26;13.60;99.90
5172;DHT22;2605;49.770;9.868;2023-09-30T06:07:54;13.70;99.90
5172;DHT22;2605;49.770;9.868;2023-09-30T06:10:20;13.70;99.90
5172;DHT22;2605;49.770;9.868;2023-09-30T06:12:50;13.70;99.90
5172;DHT22;2605;49.770;9.868;2023-09-30T06:15:24;13.70;99.90
5172;DHT22;2605;49.770;9.868;2023-09-30T06:17:52;13.70;99.90
5172;DHT22;2605;49.770;9.868;2023-09-30T06:20:21;13.60;99.90
5172;DHT22;2605;49.770;9.868;2023-09-30T06:22:51;13.60;99.90
5172;DHT22;2605;49.770;9.868;2023-09-30T06:25:19;13.60;99.90
5172;DHT22;2605;49.770;9.868;2023-09-30T06:27:46;13.50;99.90
5172;DHT22;2605;49.770;9.868;2023-09-30T06:30:14;13.50;99.90
5172;DHT22;2605;49.770;9.868;2023-09-30T06:32:41;13.60;99.90
5172;DHT22;2605;49.770;9.868;2023-09-30T06:35:10;13.60;99.90
5172;DHT22;2605;49.770;9.868;2023-09-30T06:37:36;13.60;99.90
5172;DHT22;2605;49.770;9.868;2023-09-30T06:40:04;13.60;99.90
5172;DHT22;2605;49.770;9.868;2023-09-30T06:42:30;13.50;99.90
5172;DHT22;2605;49.770;9.868;2023-09-30T06:44:56;13.60;99.90
5172;DHT22;2605;49.770;9.868;2023-09-30T06:47:22;13.60;99.90
5172;DHT22;2605;49.770;9.868;2023-09-30T06:49:49;13.60;99.90
5172;DHT22;2605;49.770;9.868;2023-09-30T06:52:15;13.70;99.90
5172;DHT22;2605;49.770;9.868;2023-09-30T06:54:40;13.80;99.90
5172;DHT22;2605;49.770;9.868;2023-09-30T06:57:06;13.80;99.90
5172;DHT22;2605;49.770;9.868;2023-09-30T06:59:34;13.80;99.90
5172;DHT22;2605;49.770;9.868;2023-09-30T07:01:59;13.80;99.90
5172;DHT22;2605;49.770;9.868;2023-09-30T07:04:25;13.90;99.90
5172;DHT22;2605;49.770;9.868;2023-09-30T07:06:52;14.00;99.90
5172;DHT22;2605;49.770;9.868;2023-09-30T07:09:18;14.00;99.90
5172;DHT22;2605;49.770;9.868;2023-09-30T07:11:45;14.00;99.90
5172;DHT22;2605;49.770;9.868;2023-09-30T07:14:11;14.10;99.90
5172;DHT22;2605;49.770;9.868;2023-09-30T07:16:36;14.00;99.90
5172;DHT22;2605;49.770;9.868;2023-09-30T07:19:02;14.10;99.90
5172;DHT22;2605;49.770;9.868;2023-09-30T07:21:28;14.10;99.90
5172;DHT22;2605;49.770;9.868;2023-09-30T07:23:54;14.20;99.90
5172;DHT22;2605;49.770;9.868;2023-09-30T07:26:26;14.10;99.90
5172;DHT22;2605;49.770;9.868;2023-09-30T07:28:53;14.10;99.90
5172;DHT22;2605;49.770;9.868;2023-09-30T07:31:19;14.00;99.90
5172;DHT22;2605;49.770;9.868;2023-09-30T07:33:45;14.10;99.90
5172;DHT22;2605;49.770;9.868;2023-09-30T07:36:10;14.10;99.90
5172;DHT22;2605;49.770;9.868;2023-09-30T07:38:41;15.00;99.90
5172;DHT22;2605;49.770;9.868;2023-09-30T07:41:07;14.30;99.90
5172;DHT22;2605;49.770;9.868;2023-09-30T07:43:35;14.30;99.90
5172;DHT22;2605;49.770;9.868;2023-09-30T07:46:06;14.40;99.90
5172;DHT22;2605;49.770;9.868;2023-09-30T07:48:31;14.40;99.90
5172;DHT22;2605;49.770;9.868;2023-09-30T07:50:58;14.50;99.90
5172;DHT22;2605;49.770;9.868;2023-09-30T07:53:23;14.60;99.90
5172;DHT22;2605;49.770;9.868;2023-09-30T07:55:49;14.60;99.90
5172;DHT22;2605;49.770;9.868;2023-09-30T07:58:14;14.60;99.90
5172;DHT22;2605;49.770;9.868;2023-09-30T08:00:40;14.60;99.90
5172;DHT22;2605;49.770;9.868;2023-09-30T08:03:05;14.80;99.90
5172;DHT22;2605;49.770;9.868;2023-09-30T08:05:31;14.80;99.90
5172;DHT22;2605;49.770;9.868;2023-09-30T08:07:57;14.90;99.90
5172;DHT22;2605;49.770;9.868;2023-09-30T08:10:22;15.00;99.90
5172;DHT22;2605;49.770;9.868;2023-09-30T08:12:48;15.10;99.90
5172;DHT22;2605;49.770;9.868;2023-09-30T08:15:15;15.10;99.90
5172;DHT22;2605;49.770;9.868;2023-09-30T08:17:41;15.10;99.90
5172;DHT22;2605;49.770;9.868;2023-09-30T08:20:07;15.20;99.90
5172;DHT22;2605;49.770;9.868;2023-09-30T08:22:34;15.30;99.90
5172;DHT22;2605;49.770;9.868;2023-09-30T08:24:59;15.30;99.90
5172;DHT22;2605;49.770;9.868;2023-09-30T08:27:25;15.40;99.90
5172;DHT22;2605;49.770;9.868;2023-09-30T08:29:51;15.50;99.90
5172;DHT22;2605;49.770;9.868;2023-09-30T08:32:16;15.60;99.90
5172;DHT22;2605;49.770;9.868;2023-09-30T08:34:42;15.70;99.90
5172;DHT22;2605;49.770;9.868;2023-09-30T08:37:07;15.80;99.90
5172;DHT22;2605;49.770;9.868;2023-09-30T08:39:38;15.90;99.90
5172;DHT22;2605;49.770;9.868;2023-09-30T08:42:08;16.10;99.90
5172;DHT22;2605;49.770;9.868;2023-09-30T08:44:35;16.20;99.90
5172;DHT22;2605;49.770;9.868;2023-09-30T08:47:01;16.30;99.90
5172;DHT22;2605;49.770;9.868;2023-09-30T08:49:29;16.20;99.90
5172;DHT22;2605;49.770;9.868;2023-09-30T08:51:55;16.10;99.90
5172;DHT22;2605;49.770;9.868;2023-09-30T08:54:22;16.10;99.90
5172;DHT22;2605;49.770;9.868;2023-09-30T08:56:48;16.20;99.90
5172;DHT22;2605;49.770;9.868;2023-09-30T08:59:15;16.30;99.90
5172;DHT22;2605;49.770;9.868;2023-09-30T09:01:41;16.50;99.90
5172;DHT22;2605;49.770;9.868;2023-09-30T09:04:07;16.50;99.90
5172;DHT22;2605;49.770;9.868;2023-09-30T09:06:32;16.60;99.90
5172;DHT22;2605;49.770;9.868;2023-09-30T09:09:14;16.50;99.90
5172;DHT22;2605;49.770;9.868;2023-09-30T09:11:42;16.40;99.90
5172;DHT22;2605;49.770;9.868;2023-09-30T09:14:07;16.40;99.90
5172;DHT22;2605;49.770;9.868;2023-09-30T09:16:34;16.60;99.90
5172;DHT22;2605;49.770;9.868;2023-09-30T09:18:59;16.80;99.90
5172;DHT22;2605;49.770;9.868;2023-09-30T09:21:27;17.00;99.90
5172;DHT22;2605;49.770;9.868;2023-09-30T09:23:53;17.20;99.90
5172;DHT22;2605;49.770;9.868;2023-09-30T09:26:30;17.40;99.90
5172;DHT22;2605;49.770;9.868;2023-09-30T09:28:58;17.10;99.90
5172;DHT22;2605;49.770;9.868;2023-09-30T09:31:26;17.10;99.90
5172;DHT22;2605;49.770;9.868;2023-09-30T09:33:53;17.20;99.90
5172;DHT22;2605;49.770;9.868;2023-09-30T09:36:19;17.30;99.90
5172;DHT22;2605;49.770;9.868;2023-09-30T09:38:51;17.40;99.90
5172;DHT22;2605;49.770;9.868;2023-09-30T09:41:20;17.70;99.90
5172;DHT22;2605;49.770;9.868;2023-09-30T09:43:48;17.90;99.90
5172;DHT22;2605;49.770;9.868;2023-09-30T09:46:16;18.10;99.90
5172;DHT22;2605;49.770;9.868;2023-09-30T09:48:44;18.00;99.90
5172;DHT22;2605;49.770;9.868;2023-09-30T09:51:11;17.90;99.90
5172;DHT22;2605;49.770;9.868;2023-09-30T09:53:39;18.00;99.90
5172;DHT22;2605;49.770;9.868;2023-09-30T09:56:08;18.10;99.90
5172;DHT22;2605;49.770;9.868;2023-09-30T09:58:35;18.30;99.90
5172;DHT22;2605;49.770;9.868;2023-09-30T10:01:05;18.30;99.90
5172;DHT22;2605;49.770;9.868;2023-09-30T10:03:31;18.10;99.90
5172;DHT22;2605;49.770;9.868;2023-09-30T10:06:01;18.00;99.90
5172;DHT22;2605;49.770;9.868;2023-09-30T10:08:33;18.00;99.90
5172;DHT22;2605;49.770;9.868;2023-09-30T10:11:01;17.90;99.90
5172;DHT22;2605;49.770;9.868;2023-09-30T10:13:55;17.60;99.90
5172;DHT22;2605;49.770;9.868;2023-09-30T10:19:21;17.60;99.90
5172;DHT22;2605;49.770;9.868;2023-09-30T10:24:46;17.50;99.90
5172;DHT22;2605;49.770;9.868;2023-09-30T10:27:28;17.30;99.90
5172;DHT22;2605;49.770;9.868;2023-09-30T10:40:49;17.90;99.90
5172;DHT22;2605;49.770;9.868;2023-09-30T10:43:35;17.90;99.90
5172;DHT22;2605;49.770;9.868;2023-09-30T10:46:01;18.10;99.90
5172;DHT22;2605;49.770;9.868;2023-09-30T10:51:16;17.90;99.90
5172;DHT22;2605;49.770;9.868;2023-09-30T10:53:52;17.80;99.90
5172;DHT22;2605;49.770;9.868;2023-09-30T10:56:19;18.00;99.90
5172;DHT22;2605;49.770;9.868;2023-09-30T10:58:50;18.00;99.90
5172;DHT22;2605;49.770;9.868;2023-09-30T11:01:17;18.00;99.90
5172;DHT22;2605;49.770;9.868;2023-09-30T11:03:45;18.00;99.90
5172;DHT22;2605;49.770;9.868;2023-09-30T11:06:15;17.70;99.90
5172;DHT22;2605;49.770;9.868;2023-09-30T11:08:54;17.70;99.90
5172;DHT22;2605;49.770;9.868;2023-09-30T11:11:50;17.90;99.90
5172;DHT22;2605;49.770;9.868;2023-09-30T11:16:45;18.00;99.90
5172;DHT22;2605;49.770;9.868;2023-09-30T11:19:14;18.10;99.90
5172;DHT22;2605;49.770;9.868;2023-09-30T11:21:44;18.40;99.90
5172;DHT22;2605;49.770;9.868;2023-09-30T11:24:10;18.50;99.90
5172;DHT22;2605;49.770;9.868;2023-09-30T11:26:37;18.50;99.90
5172;DHT22;2605;49.770;9.868;2023-09-30T11:29:10;18.50;99.90
5172;DHT22;2605;49.770;9.868;2023-09-30T11:31:40;18.30;99.90
5172;DHT22;2605;49.770;9.868;2023-09-30T11:34:06;18.30;99.90
5172;DHT22;2605;49.770;9.868;2023-09-30T11:36:34;18.20;99.90
5172;DHT22;2605;49.770;9.868;2023-09-30T11:39:00;18.30;99.90
5172;DHT22;2605;49.770;9.868;2023-09-30T11:41:39;18.40;99.90
5172;DHT22;2605;49.770;9.868;2023-09-30T11:44:11;18.60;99.90
5172;DHT22;2605;49.770;9.868;2023-09-30T11:47:13;18.60;99.90
5172;DHT22;2605;49.770;9.868;2023-09-30T11:49:41;18.50;99.90
5172;DHT22;2605;49.770;9.868;2023-09-30T11:52:11;18.50;99.90
5172;DHT22;2605;49.770;9.868;2023-09-30T11:54:38;18.30;99.90
5172;DHT22;2605;49.770;9.868;2023-09-30T11:57:09;18.20;99.90
5172;DHT22;2605;49.770;9.868;2023-09-30T11:59:36;18.20;99.90
5172;DHT22;2605;49.770;9.868;2023-09-30T12:02:02;18.30;99.90
5172;DHT22;2605;49.770;9.868;2023-09-30T12:04:29;18.30;99.90
5172;DHT22;2605;49.770;9.868;2023-09-30T12:06:55;18.30;99.90
5172;DHT22;2605;49.770;9.868;2023-09-30T12:09:20;18.60;99.90
5172;DHT22;2605;49.770;9.868;2023-09-30T12:11:52;18.70;99.90
5172;DHT22;2605;49.770;9.868;2023-09-30T12:14:18;19.00;99.90
5172;DHT22;2605;49.770;9.868;2023-09-30T12:16:44;19.40;99.90
5172;DHT22;2605;49.770;9.868;2023-09-30T12:19:11;19.50;99.90
5172;DHT22;2605;49.770;9.868;2023-09-30T12:21:39;19.70;99.90
5172;DHT22;2605;49.770;9.868;2023-09-30T12:24:05;19.50;99.90
5172;DHT22;2605;49.770;9.868;2023-09-30T12:26:33;19.40;99.90
5172;DHT22;2605;49.770;9.868;2023-09-30T12:28:58;19.30;99.90
5172;DHT22;2605;49.770;9.868;2023-09-30T12:31:24;19.20;99.90
5172;DHT22;2605;49.770;9.868;2023-09-30T12:33:49;19.30;99.90
5172;DHT22;2605;49.770;9.868;2023-09-30T12:36:16;19.40;99.90
5172;DHT22;2605;49.770;9.868;2023-09-30T12:38:42;19.40;99.90
5172;DHT22;2605;49.770;9.868;2023-09-30T12:41:09;19.40;99.90
5172;DHT22;2605;49.770;9.868;2023-09-30T12:43:34;19.50;99.90
5172;DHT22;2605;49.770;9.868;2023-09-30T12:46:00;19.70;99.90
5172;DHT22;2605;49.770;9.868;2023-09-30T12:48:25;19.60;99.90
5172;DHT22;2605;49.770;9.868;2023-09-30T12:50:51;19.70;99.90
5172;DHT22;2605;49.770;9.868;2023-09-30T12:53:16;19.70;99.90
5172;DHT22;2605;49.770;9.868;2023-09-30T12:55:42;19.80;99.90
5172;DHT22;2605;49.770;9.868;2023-09-30T12:58:08;19.50;99.90
5172;DHT22;2605;49.770;9.868;2023-09-30T13:00:34;19.50;99.90
5172;DHT22;2605;49.770;9.868;2023-09-30T13:03:01;19.70;99.90
5172;DHT22;2605;49.770;9.868;2023-09-30T13:05:27;19.80;99.90
5172;DHT22;2605;49.770;9.868;2023-09-30T13:07:55;20.00;99.90
5172;DHT22;2605;49.770;9.868;2023-09-30T13:10:21;20.00;99.90
5172;DHT22;2605;49.770;9.868;2023-09-30T13:12:48;19.80;99.90
5172;DHT22;2605;49.770;9.868;2023-09-30T13:15:15;19.50;99.90
5172;DHT22;2605;49.770;9.868;2023-09-30T13:17:41;19.20;99.90
5172;DHT22;2605;49.770;9.868;2023-09-30T13:20:07;19.20;99.90
5172;DHT22;2605;49.770;9.868;2023-09-30T13:22:34;19.20;99.90
5172;DHT22;2605;49.770;9.868;2023-09-30T13:25:01;19.30;99.90
5172;DHT22;2605;49.770;9.868;2023-09-30T13:27:27;19.40;99.90
5172;DHT22;2605;49.770;9.868;2023-09-30T13:29:53;19.40;99.90
5172;DHT22;2605;49.770;9.868;2023-09-30T13:32:22;19.70;99.90
5172;DHT22;2605;49.770;9.868;2023-09-30T13:34:47;19.80;99.90
5172;DHT22;2605;49.770;9.868;2023-09-30T13:37:14;19.60;99.90
5172;DHT22;2605;49.770;9.868;2023-09-30T13:39:39;19.60;99.90
5172;DHT22;2605;49.770;9.868;2023-09-30T13:42:05;19.60;99.90
5172;DHT22;2605;49.770;9.868;2023-09-30T13:44:32;19.70;99.90
5172;DHT22;2605;49.770;9.868;2023-09-30T13:46:58;19.80;99.90
5172;DHT22;2605;49.770;9.868;2023-09-30T13:49:23;19.80;99.90
5172;DHT22;2605;49.770;9.868;2023-09-30T13:51:49;19.70;99.90
5172;DHT22;2605;49.770;9.868;2023-09-30T13:54:14;19.70;99.90
5172;DHT22;2605;49.770;9.868;2023-09-30T13:56:40;19.90;99.90
5172;DHT22;2605;49.770;9.868;2023-09-30T13:59:06;19.90;99.90
5172;DHT22;2605;49.770;9.868;2023-09-30T14:01:31;19.80;99.90
5172;DHT22;2605;49.770;9.868;2023-09-30T14:03:57;19.90;99.90
5172;DHT22;2605;49.770;9.868;2023-09-30T14:06:23;20.20;99.90
5172;DHT22;2605;49.770;9.868;2023-09-30T14:08:49;21.70;99.90
5172;DHT22;2605;49.770;9.868;2023-09-30T14:11:15;23.20;99.90
5172;DHT22;2605;49.770;9.868;2023-09-30T14:13:41;23.90;99.90
5172;DHT22;2605;49.770;9.868;2023-09-30T14:16:07;24.20;99.90
5172;DHT22;2605;49.770;9.868;2023-09-30T14:18:33;25.10;99.90
5172;DHT22;2605;49.770;9.868;2023-09-30T14:20:59;25.00;99.90
5172;DHT22;2605;49.770;9.868;2023-09-30T14:23:26;25.20;99.90
5172;DHT22;2605;49.770;9.868;2023-09-30T14:25:54;25.20;99.90
5172;DHT22;2605;49.770;9.868;2023-09-30T14:28:21;25.50;99.90
5172;DHT22;2605;49.770;9.868;2023-09-30T14:30:47;25.30;99.90
5172;DHT22;2605;49.770;9.868;2023-09-30T14:33:13;25.40;99.90
5172;DHT22;2605;49.770;9.868;2023-09-30T14:35:39;27.30;99.90
5172;DHT22;2605;49.770;9.868;2023-09-30T14:38:04;28.70;99.90
5172;DHT22;2605;49.770;9.868;2023-09-30T14:40:36;29.80;99.90
5172;DHT22;2605;49.770;9.868;2023-09-30T14:43:02;28.50;99.90
5172;DHT22;2605;49.770;9.868;2023-09-30T14:45:30;26.90;99.90
5172;DHT22;2605;49.770;9.868;2023-09-30T14:47:56;25.40;99.90
5172;DHT22;2605;49.770;9.868;2023-09-30T14:50:22;24.80;99.90
5172;DHT22;2605;49.770;9.868;2023-09-30T14:52:47;25.40;99.90
5172;DHT22;2605;49.770;9.868;2023-09-30T14:55:13;26.70;99.90
5172;DHT22;2605;49.770;9.868;2023-09-30T14:57:41;27.60;99.90
5172;DHT22;2605;49.770;9.868;2023-09-30T15:00:07;27.90;99.90
5172;DHT22;2605;49.770;9.868;2023-09-30T15:02:32;27.70;99.90
5172;DHT22;2605;49.770;9.868;2023-09-30T15:04:58;27.20;99.90
5172;DHT22;2605;49.770;9.868;2023-09-30T15:07:24;26.60;99.90
5172;DHT22;2605;49.770;9.868;2023-09-30T15:09:49;26.00;99.90
5172;DHT22;2605;49.770;9.868;2023-09-30T15:12:16;24.80;99.90
5172;DHT22;2605;49.770;9.868;2023-09-30T15:14:41;23.90;99.90
5172;DHT22;2605;49.770;9.868;2023-09-30T15:17:07;23.50;99.90
5172;DHT22;2605;49.770;9.868;2023-09-30T15:19:32;23.50;99.90
5172;DHT22;2605;49.770;9.868;2023-09-30T15:21:58;23.40;99.90
5172;DHT22;2605;49.770;9.868;2023-09-30T15:24:24;23.50;99.90
5172;DHT22;2605;49.770;9.868;2023-09-30T15:26:49;23.10;99.90
5172;DHT22;2605;49.770;9.868;2023-09-30T15:29:15;22.00;99.90
5172;DHT22;2605;49.770;9.868;2023-09-30T15:31:41;21.50;99.90
5172;DHT22;2605;49.770;9.868;2023-09-30T15:34:06;21.20;99.90
5172;DHT22;2605;49.770;9.868;2023-09-30T15:36:32;20.60;99.90
5172;DHT22;2605;49.770;9.868;2023-09-30T15:38:57;20.60;99.90
5172;DHT22;2605;49.770;9.868;2023-09-30T15:41:26;20.00;99.90
5172;DHT22;2605;49.770;9.868;2023-09-30T15:43:51;19.50;99.90
5172;DHT22;2605;49.770;9.868;2023-09-30T15:46:17;19.10;99.90
5172;DHT22;2605;49.770;9.868;2023-09-30T15:48:43;19.00;99.90
5172;DHT22;2605;49.770;9.868;2023-09-30T15:51:08;18.80;99.90
5172;DHT22;2605;49.770;9.868;2023-09-30T15:53:34;18.60;99.90
5172;DHT22;2605;49.770;9.868;2023-09-30T15:56:02;18.30;99.90
5172;DHT22;2605;49.770;9.868;2023-09-30T15:58:27;18.10;99.90
5172;DHT22;2605;49.770;9.868;2023-09-30T16:00:54;18.00;99.90
5172;DHT22;2605;49.770;9.868;2023-09-30T16:03:20;17.90;99.90
5172;DHT22;2605;49.770;9.868;2023-09-30T16:05:45;17.70;99.90
5172;DHT22;2605;49.770;9.868;2023-09-30T16:08:11;17.60;99.90
5172;DHT22;2605;49.770;9.868;2023-09-30T16:10:36;17.50;99.90
5172;DHT22;2605;49.770;9.868;2023-09-30T16:13:03;17.40;99.90
5172;DHT22;2605;49.770;9.868;2023-09-30T16:15:28;17.40;99.90
5172;DHT22;2605;49.770;9.868;2023-09-30T16:17:54;17.30;99.90
5172;DHT22;2605;49.770;9.868;2023-09-30T16:20:20;17.20;99.90
5172;DHT22;2605;49.770;9.868;2023-09-30T16:22:51;17.20;99.90
5172;DHT22;2605;49.770;9.868;2023-09-30T16:25:20;17.00;99.90